United Spirit — ELYB2 — position and weather

sailwx.info

Track history (hours):
 
Tides and Currents Weather Stations Pressure Air Temp Water Temp Dewpoint Dewpoint Depression Visibility Wind Speed Wind Dir Waves Ship Positions

United Spirit

Last reported at 2014-Dec-05 01:07 UTC. Time now 2014-Dec-22 14:57 UTC.
Position S 36°32' E 175°05'.
Warning: this ship's position is 17 days out of date.

Type: Cargo ship. MMSI: 636011280.

Date/timePositionNaut miles runAvg speedWind from/ knotsBaromVisibWave heightAir tempDewpointWater temp
2014-Dec-05 01:07S 36°32' E 175°05'1017.2
2014-Dec-05 00:33S 36°39' E 174°56'1111.1
2014-Dec-04 23:33S 36°49' E 174°50'3 3.1
2014-Dec-04 22:31S 36°50' E 174°46'0 0.0
2014-Dec-04 21:31S 36°50' E 174°46'0 0.0
2014-Dec-04 20:25S 36°50' E 174°46'0 0.0
2014-Dec-04 19:31S 36°50' E 174°46'0 0.0
2014-Dec-04 17:25S 36°50' E 174°46'0 0.0
2014-Dec-04 16:28S 36°50' E 174°46'0 0.0
2014-Dec-04 15:28S 36°50' E 174°46'0 0.0
2014-Dec-04 14:31S 36°50' E 174°46'0 0.0
2014-Dec-04 13:31S 36°50' E 174°46'0 0.0
2014-Dec-04 12:31S 36°50' E 174°46'0 0.0
2014-Dec-04 11:31S 36°50' E 174°46'0 0.0
2014-Dec-04 10:31S 36°50' E 174°46'0 0.0
2014-Dec-04 09:28S 36°50' E 174°46'0 0.0
2014-Dec-04 08:28S 36°50' E 174°46'0 0.0
2014-Dec-04 07:22S 36°50' E 174°46'0 0.0
2014-Dec-04 06:28S 36°50' E 174°46'0 0.0
2014-Dec-04 05:13S 36°50' E 174°46'0 0.0
2014-Dec-04 04:22S 36°50' E 174°46'0 0.0
2014-Dec-04 03:31S 36°50' E 174°46'0 0.0
2014-Dec-04 02:31S 36°50' E 174°46'0 0.0
2014-Dec-04 01:31S 36°50' E 174°46'0 0.0
2014-Dec-04 00:28S 36°50' E 174°46'4 4.2
2014-Dec-03 23:34S 36°47' E 174°48'7 7.1
2014-Dec-03 22:34S 36°41' E 174°53'7 6.6
2014-Dec-03 21:33S 36°36' E 174°58'8 7.6
2014-Dec-03 20:33S 36°28' E 174°60'1212.5
2014-Dec-03 19:33S 36°16' E 174°58'  
Track history (hours):
 
Tides and Currents Weather Stations Pressure Air Temp Water Temp Dewpoint Dewpoint Depression Visibility Wind Speed Wind Dir Waves Ship Positions

United Spirit

Last reported at 2014-Dec-05 01:07 UTC. Time now 2014-Dec-22 14:57 UTC.
Position S 36°32' E 175°05'.
Warning: this ship's position is 17 days out of date.

Type: Cargo ship. MMSI: 636011280.

Date/timePositionNaut miles runAvg speedWind from/ knotsBaromVisibWave heightAir tempDewpointWater temp
2014-Dec-05 01:07S 36°32' E 175°05'1017.2
2014-Dec-05 00:33S 36°39' E 174°56'1111.1
2014-Dec-04 23:33S 36°49' E 174°50'3 3.1
2014-Dec-04 22:31S 36°50' E 174°46'0 0.0
2014-Dec-04 21:31S 36°50' E 174°46'0 0.0
2014-Dec-04 20:25S 36°50' E 174°46'0 0.0
2014-Dec-04 19:31S 36°50' E 174°46'0 0.0
2014-Dec-04 17:25S 36°50' E 174°46'0 0.0
2014-Dec-04 16:28S 36°50' E 174°46'0 0.0
2014-Dec-04 15:28S 36°50' E 174°46'0 0.0
2014-Dec-04 14:31S 36°50' E 174°46'0 0.0
2014-Dec-04 13:31S 36°50' E 174°46'0 0.0
2014-Dec-04 12:31S 36°50' E 174°46'0 0.0
2014-Dec-04 11:31S 36°50' E 174°46'0 0.0
2014-Dec-04 10:31S 36°50' E 174°46'0 0.0
2014-Dec-04 09:28S 36°50' E 174°46'0 0.0
2014-Dec-04 08:28S 36°50' E 174°46'0 0.0
2014-Dec-04 07:22S 36°50' E 174°46'0 0.0
2014-Dec-04 06:28S 36°50' E 174°46'0 0.0
2014-Dec-04 05:13S 36°50' E 174°46'0 0.0
2014-Dec-04 04:22S 36°50' E 174°46'0 0.0
2014-Dec-04 03:31S 36°50' E 174°46'0 0.0
2014-Dec-04 02:31S 36°50' E 174°46'0 0.0
2014-Dec-04 01:31S 36°50' E 174°46'0 0.0
2014-Dec-04 00:28S 36°50' E 174°46'4 4.2
2014-Dec-03 23:34S 36°47' E 174°48'7 7.1
2014-Dec-03 22:34S 36°41' E 174°53'7 6.6
2014-Dec-03 21:33S 36°36' E 174°58'8 7.6
2014-Dec-03 20:33S 36°28' E 174°60'1212.5
2014-Dec-03 19:33S 36°16' E 174°58'  

Dump ship's entire track history